sensor_id;sensor_type;location;lat;lon;timestamp;pressure;altitude;pressure_sealevel;temperature;humidity
44751;BME280;30477;48.224;11.470;2023-02-02T00:01:29;96433.63;;;3.59;64.25
44751;BME280;30477;48.224;11.470;2023-02-02T00:03:55;96435.44;;;3.57;64.39
44751;BME280;30477;48.224;11.470;2023-02-02T00:06:23;96423.38;;;3.59;64.33
44751;BME280;30477;48.224;11.470;2023-02-02T00:08:49;96432.53;;;3.63;64.23
44751;BME280;30477;48.224;11.470;2023-02-02T00:11:16;96418.16;;;3.61;64.10
44751;BME280;30477;48.224;11.470;2023-02-02T00:13:42;96419.72;;;3.63;64.32
44751;BME280;30477;48.224;11.470;2023-02-02T00:16:33;96400.88;;;3.64;64.14
44751;BME280;30477;48.224;11.470;2023-02-02T00:19:12;96428.31;;;3.62;64.45
44751;BME280;30477;48.224;11.470;2023-02-02T00:21:38;96449.06;;;3.58;64.67
44751;BME280;30477;48.224;11.470;2023-02-02T00:24:05;96434.78;;;3.54;65.13
44751;BME280;30477;48.224;11.470;2023-02-02T00:26:31;96453.03;;;3.48;65.42
44751;BME280;30477;48.224;11.470;2023-02-02T00:28:56;96428.47;;;3.45;65.95
44751;BME280;30477;48.224;11.470;2023-02-02T00:31:22;96414.94;;;3.43;66.03
44751;BME280;30477;48.224;11.470;2023-02-02T00:33:48;96434.81;;;3.38;66.32
44751;BME280;30477;48.224;11.470;2023-02-02T00:36:15;96420.84;;;3.43;66.28
44751;BME280;30477;48.224;11.470;2023-02-02T00:38:41;96414.66;;;3.48;66.51
44751;BME280;30477;48.224;11.470;2023-02-02T00:41:07;96415.66;;;3.45;66.31
44751;BME280;30477;48.224;11.470;2023-02-02T00:43:32;96436.28;;;3.42;66.38
44751;BME280;30477;48.224;11.470;2023-02-02T00:45:58;96428.41;;;3.31;66.85
44751;BME280;30477;48.224;11.470;2023-02-02T00:48:23;96411.78;;;3.38;67.29
44751;BME280;30477;48.224;11.470;2023-02-02T00:50:50;96424.59;;;3.38;67.16
44751;BME280;30477;48.224;11.470;2023-02-02T00:53:15;96433.34;;;3.34;67.13
44751;BME280;30477;48.224;11.470;2023-02-02T00:55:40;96424.94;;;3.32;67.64
44751;BME280;30477;48.224;11.470;2023-02-02T00:58:06;96409.56;;;3.32;67.83
44751;BME280;30477;48.224;11.470;2023-02-02T01:00:31;96421.16;;;3.23;68.05
44751;BME280;30477;48.224;11.470;2023-02-02T01:02:56;96410.75;;;3.26;68.29
44751;BME280;30477;48.224;11.470;2023-02-02T01:05:28;96408.28;;;3.24;68.23
44751;BME280;30477;48.224;11.470;2023-02-02T01:07:54;96409.69;;;3.30;68.37
44751;BME280;30477;48.224;11.470;2023-02-02T01:10:19;96410.31;;;3.34;68.12
44751;BME280;30477;48.224;11.470;2023-02-02T01:12:44;96396.63;;;3.35;67.96
44751;BME280;30477;48.224;11.470;2023-02-02T01:15:11;96416.16;;;3.36;67.76
44751;BME280;30477;48.224;11.470;2023-02-02T01:17:36;96411.06;;;3.36;67.73
44751;BME280;30477;48.224;11.470;2023-02-02T01:20:04;96418.09;;;3.32;67.69
44751;BME280;30477;48.224;11.470;2023-02-02T01:22:29;96401.16;;;3.30;67.96
44751;BME280;30477;48.224;11.470;2023-02-02T01:24:55;96413.06;;;3.31;67.98
44751;BME280;30477;48.224;11.470;2023-02-02T01:27:20;96398.25;;;3.36;67.92
44751;BME280;30477;48.224;11.470;2023-02-02T01:29:45;96393.25;;;3.34;67.88
44751;BME280;30477;48.224;11.470;2023-02-02T01:32:11;96419.66;;;3.35;67.71
44751;BME280;30477;48.224;11.470;2023-02-02T01:34:36;96416.16;;;3.36;67.66
44751;BME280;30477;48.224;11.470;2023-02-02T01:37:06;96395.81;;;3.34;67.90
44751;BME280;30477;48.224;11.470;2023-02-02T01:39:32;96403.28;;;3.37;67.90
44751;BME280;30477;48.224;11.470;2023-02-02T01:41:57;96404.13;;;3.38;67.77
44751;BME280;30477;48.224;11.470;2023-02-02T01:47:17;96405.78;;;3.39;67.42
44751;BME280;30477;48.224;11.470;2023-02-02T01:49:44;96392.25;;;3.37;67.65
44751;BME280;30477;48.224;11.470;2023-02-02T01:52:10;96385.47;;;3.36;67.48
44751;BME280;30477;48.224;11.470;2023-02-02T01:54:47;96387.13;;;3.37;67.61
44751;BME280;30477;48.224;11.470;2023-02-02T01:57:18;96379.47;;;3.37;67.60
44751;BME280;30477;48.224;11.470;2023-02-02T01:59:46;96365.84;;;3.36;67.69
44751;BME280;30477;48.224;11.470;2023-02-02T02:02:12;96391.31;;;3.38;67.53
44751;BME280;30477;48.224;11.470;2023-02-02T02:04:38;96371.59;;;3.40;67.38
44751;BME280;30477;48.224;11.470;2023-02-02T02:07:04;96373.25;;;3.41;67.31
44751;BME280;30477;48.224;11.470;2023-02-02T02:09:30;96363.19;;;3.38;67.29
44751;BME280;30477;48.224;11.470;2023-02-02T02:11:56;96380.34;;;3.36;67.53
44751;BME280;30477;48.224;11.470;2023-02-02T02:14:22;96352.78;;;3.41;67.52
44751;BME280;30477;48.224;11.470;2023-02-02T02:17:39;96387.78;;;3.40;67.35
44751;BME280;30477;48.224;11.470;2023-02-02T02:20:49;96386.94;;;3.40;67.34
44751;BME280;30477;48.224;11.470;2023-02-02T02:32:44;96351.50;;;3.48;67.12
44751;BME280;30477;48.224;11.470;2023-02-02T02:35:27;96375.53;;;3.45;67.05
44751;BME280;30477;48.224;11.470;2023-02-02T02:40:50;96385.31;;;3.39;67.28
44751;BME280;30477;48.224;11.470;2023-02-02T02:43:23;96367.41;;;3.39;67.12
44751;BME280;30477;48.224;11.470;2023-02-02T02:45:51;96370.03;;;3.37;67.35
44751;BME280;30477;48.224;11.470;2023-02-02T02:48:16;96371.78;;;3.37;67.46
44751;BME280;30477;48.224;11.470;2023-02-02T02:50:42;96391.44;;;3.36;67.35
44751;BME280;30477;48.224;11.470;2023-02-02T02:53:13;96373.59;;;3.35;67.44
44751;BME280;30477;48.224;11.470;2023-02-02T03:01:13;96368.28;;;3.38;67.79
44751;BME280;30477;48.224;11.470;2023-02-02T03:03:52;96379.38;;;3.38;67.72
44751;BME280;30477;48.224;11.470;2023-02-02T03:06:33;96388.03;;;3.36;67.82
44751;BME280;30477;48.224;11.470;2023-02-02T03:09:08;96388.94;;;3.35;67.67
44751;BME280;30477;48.224;11.470;2023-02-02T03:11:35;96385.31;;;3.39;67.99
44751;BME280;30477;48.224;11.470;2023-02-02T03:14:01;96391.78;;;3.30;68.68
44751;BME280;30477;48.224;11.470;2023-02-02T03:16:27;96383.78;;;3.20;69.28
44751;BME280;30477;48.224;11.470;2023-02-02T03:18:53;96388.16;;;3.18;69.49
44751;BME280;30477;48.224;11.470;2023-02-02T03:21:20;96383.31;;;3.14;69.84
44751;BME280;30477;48.224;11.470;2023-02-02T03:23:46;96388.16;;;3.18;69.94
44751;BME280;30477;48.224;11.470;2023-02-02T03:26:11;96371.81;;;3.21;69.88
44751;BME280;30477;48.224;11.470;2023-02-02T03:28:37;96373.09;;;3.14;70.51
44751;BME280;30477;48.224;11.470;2023-02-02T03:31:02;96390.50;;;3.07;71.13
44751;BME280;30477;48.224;11.470;2023-02-02T03:33:30;96387.38;;;3.02;71.36
44751;BME280;30477;48.224;11.470;2023-02-02T03:35:56;96395.97;;;3.01;71.67
44751;BME280;30477;48.224;11.470;2023-02-02T03:38:21;96405.19;;;3.03;71.56
44751;BME280;30477;48.224;11.470;2023-02-02T03:40:47;96405.38;;;3.00;71.73
44751;BME280;30477;48.224;11.470;2023-02-02T03:43:12;96400.41;;;2.97;71.86
44751;BME280;30477;48.224;11.470;2023-02-02T03:45:37;96399.59;;;2.97;71.98
44751;BME280;30477;48.224;11.470;2023-02-02T03:48:05;96397.59;;;3.02;71.81
44751;BME280;30477;48.224;11.470;2023-02-02T03:50:31;96383.84;;;3.04;71.97
44751;BME280;30477;48.224;11.470;2023-02-02T03:52:56;96399.75;;;3.10;71.74
44751;BME280;30477;48.224;11.470;2023-02-02T03:55:22;96392.72;;;3.13;71.55
44751;BME280;30477;48.224;11.470;2023-02-02T03:57:47;96396.03;;;3.15;71.36
44751;BME280;30477;48.224;11.470;2023-02-02T04:00:13;96403.84;;;3.12;71.39
44751;BME280;30477;48.224;11.470;2023-02-02T04:02:38;96396.91;;;3.14;71.42
44751;BME280;30477;48.224;11.470;2023-02-02T04:05:04;96403.50;;;3.18;71.50
44751;BME280;30477;48.224;11.470;2023-02-02T04:07:30;96399.13;;;3.20;71.40
44751;BME280;30477;48.224;11.470;2023-02-02T04:09:55;96406.16;;;3.17;71.23
44751;BME280;30477;48.224;11.470;2023-02-02T04:12:20;96402.84;;;3.15;71.49
44751;BME280;30477;48.224;11.470;2023-02-02T04:14:46;96383.88;;;3.19;71.26
44751;BME280;30477;48.224;11.470;2023-02-02T04:17:11;96410.91;;;3.23;71.31
44751;BME280;30477;48.224;11.470;2023-02-02T04:19:36;96416.03;;;3.23;71.17
44751;BME280;30477;48.224;11.470;2023-02-02T04:22:01;96406.72;;;3.22;71.11
44751;BME280;30477;48.224;11.470;2023-02-02T04:24:27;96415.22;;;3.22;71.06
44751;BME280;30477;48.224;11.470;2023-02-02T04:26:52;96403.34;;;3.21;71.11
44751;BME280;30477;48.224;11.470;2023-02-02T04:29:17;96414.66;;;3.17;71.36
44751;BME280;30477;48.224;11.470;2023-02-02T04:31:43;96426.13;;;3.10;71.72
44751;BME280;30477;48.224;11.470;2023-02-02T04:34:08;96415.25;;;3.07;72.02
44751;BME280;30477;48.224;11.470;2023-02-02T04:36:34;96397.44;;;3.05;72.41
44751;BME280;30477;48.224;11.470;2023-02-02T04:38:59;96407.69;;;3.05;72.56
44751;BME280;30477;48.224;11.470;2023-02-02T04:41:24;96415.91;;;3.10;72.48
44751;BME280;30477;48.224;11.470;2023-02-02T04:43:50;96409.44;;;3.19;72.29
44751;BME280;30477;48.224;11.470;2023-02-02T04:46:16;96395.56;;;3.23;72.08
44751;BME280;30477;48.224;11.470;2023-02-02T04:48:42;96417.63;;;3.25;71.87
44751;BME280;30477;48.224;11.470;2023-02-02T04:51:12;96416.69;;;3.27;71.55
44751;BME280;30477;48.224;11.470;2023-02-02T04:53:39;96406.28;;;3.30;71.17
44751;BME280;30477;48.224;11.470;2023-02-02T04:56:15;96413.88;;;3.31;71.02
44751;BME280;30477;48.224;11.470;2023-02-02T04:58:42;96419.00;;;3.31;70.94
44751;BME280;30477;48.224;11.470;2023-02-02T05:01:14;96419.06;;;3.30;71.08
44751;BME280;30477;48.224;11.470;2023-02-02T05:03:40;96423.28;;;3.31;70.96
44751;BME280;30477;48.224;11.470;2023-02-02T05:06:05;96423.09;;;3.34;70.97
44751;BME280;30477;48.224;11.470;2023-02-02T05:08:31;96425.59;;;3.35;71.02
44751;BME280;30477;48.224;11.470;2023-02-02T05:10:57;96428.22;;;3.34;71.09
44751;BME280;30477;48.224;11.470;2023-02-02T05:13:22;96428.22;;;3.34;71.08
44751;BME280;30477;48.224;11.470;2023-02-02T05:15:47;96450.50;;;3.32;71.06
44751;BME280;30477;48.224;11.470;2023-02-02T05:18:13;96445.03;;;3.38;71.06
44751;BME280;30477;48.224;11.470;2023-02-02T05:20:38;96434.00;;;3.37;70.85
44751;BME280;30477;48.224;11.470;2023-02-02T05:23:04;96452.84;;;3.36;71.00
44751;BME280;30477;48.224;11.470;2023-02-02T05:25:29;96446.06;;;3.35;71.27
44751;BME280;30477;48.224;11.470;2023-02-02T05:27:55;96438.47;;;3.34;71.33
44751;BME280;30477;48.224;11.470;2023-02-02T05:30:20;96448.88;;;3.31;71.57
44751;BME280;30477;48.224;11.470;2023-02-02T05:32:46;96456.63;;;3.29;71.88
44751;BME280;30477;48.224;11.470;2023-02-02T05:35:11;96449.78;;;3.30;71.78
44751;BME280;30477;48.224;11.470;2023-02-02T05:37:36;96411.59;;;3.27;72.07
44751;BME280;30477;48.224;11.470;2023-02-02T05:40:02;96433.59;;;3.29;72.17
44751;BME280;30477;48.224;11.470;2023-02-02T05:42:28;96440.28;;;3.32;72.05
44751;BME280;30477;48.224;11.470;2023-02-02T05:44:53;96441.19;;;3.31;72.11
44751;BME280;30477;48.224;11.470;2023-02-02T05:47:18;96438.72;;;3.29;72.19
44751;BME280;30477;48.224;11.470;2023-02-02T05:49:44;96438.63;;;3.31;72.34
44751;BME280;30477;48.224;11.470;2023-02-02T05:52:14;96426.59;;;3.33;72.07
44751;BME280;30477;48.224;11.470;2023-02-02T05:54:42;96442.69;;;3.35;72.02
44751;BME280;30477;48.224;11.470;2023-02-02T05:57:07;96431.50;;;3.36;71.71
44751;BME280;30477;48.224;11.470;2023-02-02T05:59:32;96435.75;;;3.37;71.83
44751;BME280;30477;48.224;11.470;2023-02-02T06:01:58;96430.28;;;3.43;71.59
44751;BME280;30477;48.224;11.470;2023-02-02T06:04:23;96440.31;;;3.46;71.34
44751;BME280;30477;48.224;11.470;2023-02-02T06:06:48;96442.72;;;3.49;71.26
44751;BME280;30477;48.224;11.470;2023-02-02T06:09:14;96447.09;;;3.47;71.20
44751;BME280;30477;48.224;11.470;2023-02-02T06:11:39;96446.19;;;3.48;71.31
44751;BME280;30477;48.224;11.470;2023-02-02T06:14:05;96434.13;;;3.50;71.23
44751;BME280;30477;48.224;11.470;2023-02-02T06:16:30;96440.91;;;3.51;70.59
44751;BME280;30477;48.224;11.470;2023-02-02T06:18:55;96447.66;;;3.52;70.78
44751;BME280;30477;48.224;11.470;2023-02-02T06:21:21;96456.34;;;3.50;70.89
44751;BME280;30477;48.224;11.470;2023-02-02T06:23:50;96451.31;;;3.48;70.88
44751;BME280;30477;48.224;11.470;2023-02-02T06:26:15;96427.38;;;3.49;70.93
44751;BME280;30477;48.224;11.470;2023-02-02T06:28:42;96451.88;;;3.53;70.76
44751;BME280;30477;48.224;11.470;2023-02-02T06:31:08;96437.41;;;3.52;70.77
44751;BME280;30477;48.224;11.470;2023-02-02T06:33:35;96435.59;;;3.54;70.74
44751;BME280;30477;48.224;11.470;2023-02-02T06:36:01;96438.91;;;3.56;70.85
44751;BME280;30477;48.224;11.470;2023-02-02T06:38:27;96445.75;;;3.56;70.92
44751;BME280;30477;48.224;11.470;2023-02-02T06:40:53;96434.59;;;3.57;70.75
44751;BME280;30477;48.224;11.470;2023-02-02T06:43:18;96446.31;;;3.61;70.62
44751;BME280;30477;48.224;11.470;2023-02-02T06:45:44;96454.91;;;3.60;70.46
44751;BME280;30477;48.224;11.470;2023-02-02T06:48:09;96478.03;;;3.58;70.61
44751;BME280;30477;48.224;11.470;2023-02-02T06:50:38;96473.81;;;3.57;70.48
44751;BME280;30477;48.224;11.470;2023-02-02T06:53:03;96462.75;;;3.57;70.63
44751;BME280;30477;48.224;11.470;2023-02-02T06:55:29;96467.13;;;3.55;70.72
44751;BME280;30477;48.224;11.470;2023-02-02T06:57:58;96456.81;;;3.56;70.71
44751;BME280;30477;48.224;11.470;2023-02-02T07:00:25;96473.09;;;3.55;70.76
44751;BME280;30477;48.224;11.470;2023-02-02T07:02:50;96480.94;;;3.52;70.71
44751;BME280;30477;48.224;11.470;2023-02-02T07:05:16;96472.25;;;3.55;70.78
44751;BME280;30477;48.224;11.470;2023-02-02T07:07:44;96477.56;;;3.52;70.70
44751;BME280;30477;48.224;11.470;2023-02-02T07:10:09;96486.78;;;3.54;70.97
44751;BME280;30477;48.224;11.470;2023-02-02T07:12:35;96485.16;;;3.53;70.95
44751;BME280;30477;48.224;11.470;2023-02-02T07:15:00;96474.91;;;3.53;71.12
44751;BME280;30477;48.224;11.470;2023-02-02T07:17:26;96497.03;;;3.54;70.98
44751;BME280;30477;48.224;11.470;2023-02-02T07:19:51;96490.91;;;3.57;70.91
44751;BME280;30477;48.224;11.470;2023-02-02T07:22:16;96486.72;;;3.56;70.95
44751;BME280;30477;48.224;11.470;2023-02-02T07:24:42;96491.91;;;3.54;71.12
44751;BME280;30477;48.224;11.470;2023-02-02T07:27:07;96499.56;;;3.54;71.46
44751;BME280;30477;48.224;11.470;2023-02-02T07:29:32;96504.69;;;3.54;71.17
44751;BME280;30477;48.224;11.470;2023-02-02T07:31:58;96513.94;;;3.57;71.23
44751;BME280;30477;48.224;11.470;2023-02-02T07:34:23;96506.38;;;3.55;71.01
44751;BME280;30477;48.224;11.470;2023-02-02T07:36:48;96501.97;;;3.57;71.26
44751;BME280;30477;48.224;11.470;2023-02-02T07:39:14;96492.47;;;3.59;71.51
44751;BME280;30477;48.224;11.470;2023-02-02T07:41:39;96513.84;;;3.58;71.38
44751;BME280;30477;48.224;11.470;2023-02-02T07:44:05;96518.97;;;3.58;71.41
44751;BME280;30477;48.224;11.470;2023-02-02T07:46:31;96509.66;;;3.57;71.73
44751;BME280;30477;48.224;11.470;2023-02-02T07:48:57;96515.84;;;3.53;71.85
44751;BME280;30477;48.224;11.470;2023-02-02T07:51:24;96519.16;;;3.55;71.86
44751;BME280;30477;48.224;11.470;2023-02-02T07:53:51;96510.41;;;3.59;71.94
44751;BME280;30477;48.224;11.470;2023-02-02T07:56:22;96523.28;;;3.58;71.98
44751;BME280;30477;48.224;11.470;2023-02-02T07:58:50;96529.22;;;3.58;72.20
44751;BME280;30477;48.224;11.470;2023-02-02T08:01:16;96515.53;;;3.59;72.08
44751;BME280;30477;48.224;11.470;2023-02-02T08:03:42;96529.06;;;3.61;72.01
44751;BME280;30477;48.224;11.470;2023-02-02T08:06:10;96526.56;;;3.60;71.96
44751;BME280;30477;48.224;11.470;2023-02-02T08:08:36;96542.66;;;3.62;72.01
44751;BME280;30477;48.224;11.470;2023-02-02T08:11:01;96527.38;;;3.60;72.09
44751;BME280;30477;48.224;11.470;2023-02-02T08:13:27;96534.00;;;3.64;72.06
44751;BME280;30477;48.224;11.470;2023-02-02T08:15:52;96535.66;;;3.65;71.95
44751;BME280;30477;48.224;11.470;2023-02-02T08:18:17;96539.50;;;3.73;72.04
44751;BME280;30477;48.224;11.470;2023-02-02T08:20:43;96549.00;;;3.71;71.75
44751;BME280;30477;48.224;11.470;2023-02-02T08:23:08;96571.31;;;3.69;71.79
44751;BME280;30477;48.224;11.470;2023-02-02T08:25:39;96566.94;;;3.71;71.88
44751;BME280;30477;48.224;11.470;2023-02-02T08:28:05;96566.25;;;3.67;72.02
44751;BME280;30477;48.224;11.470;2023-02-02T08:30:30;96559.59;;;3.64;71.91
44751;BME280;30477;48.224;11.470;2023-02-02T08:32:56;96562.41;;;3.60;72.13
44751;BME280;30477;48.224;11.470;2023-02-02T08:35:21;96586.34;;;3.59;72.54
44751;BME280;30477;48.224;11.470;2023-02-02T08:37:47;96575.94;;;3.62;72.51
44751;BME280;30477;48.224;11.470;2023-02-02T08:40:13;96568.19;;;3.63;72.59
44751;BME280;30477;48.224;11.470;2023-02-02T08:42:39;96564.72;;;3.64;72.89
44751;BME280;30477;48.224;11.470;2023-02-02T08:45:05;96579.91;;;3.68;72.85
44751;BME280;30477;48.224;11.470;2023-02-02T08:47:30;96581.22;;;3.59;73.08
44751;BME280;30477;48.224;11.470;2023-02-02T08:49:55;96578.75;;;3.57;73.44
44751;BME280;30477;48.224;11.470;2023-02-02T08:52:21;96586.66;;;3.53;73.90
44751;BME280;30477;48.224;11.470;2023-02-02T08:54:46;96589.47;;;3.48;74.15
44751;BME280;30477;48.224;11.470;2023-02-02T08:57:11;96567.19;;;3.50;74.31
44751;BME280;30477;48.224;11.470;2023-02-02T08:59:37;96560.25;;;3.52;74.49
44751;BME280;30477;48.224;11.470;2023-02-02T09:02:02;96593.59;;;3.51;74.33
44751;BME280;30477;48.224;11.470;2023-02-02T09:04:28;96570.69;;;3.49;74.52
44751;BME280;30477;48.224;11.470;2023-02-02T09:06:53;96587.66;;;3.50;74.61
44751;BME280;30477;48.224;11.470;2023-02-02T09:09:18;96578.91;;;3.54;74.68
44751;BME280;30477;48.224;11.470;2023-02-02T09:11:44;96583.88;;;3.57;74.52
44751;BME280;30477;48.224;11.470;2023-02-02T09:14:11;96576.09;;;3.59;74.58
44751;BME280;30477;48.224;11.470;2023-02-02T09:16:37;96601.81;;;3.57;74.62
44751;BME280;30477;48.224;11.470;2023-02-02T09:19:03;96599.56;;;3.51;74.56
44751;BME280;30477;48.224;11.470;2023-02-02T09:21:29;96614.94;;;3.51;74.83
44751;BME280;30477;48.224;11.470;2023-02-02T09:23:54;96595.19;;;3.53;75.02
44751;BME280;30477;48.224;11.470;2023-02-02T09:26:27;96574.72;;;3.53;74.81
44751;BME280;30477;48.224;11.470;2023-02-02T09:28:58;96601.81;;;3.57;74.98
44751;BME280;30477;48.224;11.470;2023-02-02T09:31:27;96612.19;;;3.54;74.82
44751;BME280;30477;48.224;11.470;2023-02-02T09:33:53;96614.94;;;3.51;75.11
44751;BME280;30477;48.224;11.470;2023-02-02T09:36:20;96610.38;;;3.56;75.19
44751;BME280;30477;48.224;11.470;2023-02-02T09:38:47;96609.97;;;3.64;75.34
44751;BME280;30477;48.224;11.470;2023-02-02T09:41:44;96592.59;;;3.69;75.08
44751;BME280;30477;48.224;11.470;2023-02-02T09:49:16;96605.66;;;3.64;75.26
44751;BME280;30477;48.224;11.470;2023-02-02T09:51:49;96605.41;;;3.69;75.23
44751;BME280;30477;48.224;11.470;2023-02-02T09:54:20;96626.22;;;3.63;75.20
44751;BME280;30477;48.224;11.470;2023-02-02T09:56:50;96620.94;;;3.66;75.42
44751;BME280;30477;48.224;11.470;2023-02-02T09:59:22;96604.78;;;3.65;75.70
44751;BME280;30477;48.224;11.470;2023-02-02T10:01:51;96624.06;;;3.71;75.48
44751;BME280;30477;48.224;11.470;2023-02-02T10:04:38;96634.41;;;3.70;75.39
44751;BME280;30477;48.224;11.470;2023-02-02T10:07:35;96630.75;;;3.74;75.30
44751;BME280;30477;48.224;11.470;2023-02-02T10:13:18;96614.22;;;3.79;74.95
44751;BME280;30477;48.224;11.470;2023-02-02T10:16:06;96615.31;;;3.91;74.90
44751;BME280;30477;48.224;11.470;2023-02-02T10:18:44;96597.19;;;3.94;74.78
44751;BME280;30477;48.224;11.470;2023-02-02T10:21:22;96614.97;;;3.97;74.61
44751;BME280;30477;48.224;11.470;2023-02-02T10:23:50;96605.28;;;4.02;74.38
44751;BME280;30477;48.224;11.470;2023-02-02T10:26:21;96595.03;;;4.02;74.37
44751;BME280;30477;48.224;11.470;2023-02-02T10:31:37;96615.03;;;3.96;73.81
44751;BME280;30477;48.224;11.470;2023-02-02T10:36:41;96609.09;;;3.95;73.80
44751;BME280;30477;48.224;11.470;2023-02-02T10:39:29;96615.69;;;3.99;73.67
44751;BME280;30477;48.224;11.470;2023-02-02T10:44:50;96606.19;;;4.01;73.83
44751;BME280;30477;48.224;11.470;2023-02-02T10:47:24;96601.06;;;4.01;73.97
44751;BME280;30477;48.224;11.470;2023-02-02T10:50:09;96616.53;;;4.00;73.97
44751;BME280;30477;48.224;11.470;2023-02-02T10:52:48;96596.38;;;3.94;74.15
44751;BME280;30477;48.224;11.470;2023-02-02T10:55:24;96586.78;;;3.97;74.36
44751;BME280;30477;48.224;11.470;2023-02-02T11:03:13;96614.22;;;3.95;74.59
44751;BME280;30477;48.224;11.470;2023-02-02T11:05:39;96589.34;;;3.97;74.50
44751;BME280;30477;48.224;11.470;2023-02-02T11:08:29;96607.75;;;4.04;74.92
44751;BME280;30477;48.224;11.470;2023-02-02T11:10:58;96601.63;;;4.06;74.83
44751;BME280;30477;48.224;11.470;2023-02-02T11:13:30;96591.56;;;4.03;75.04
44751;BME280;30477;48.224;11.470;2023-02-02T11:18:40;96604.09;;;4.08;75.53
44751;BME280;30477;48.224;11.470;2023-02-02T11:21:20;96594.34;;;4.15;75.38
44751;BME280;30477;48.224;11.470;2023-02-02T11:23:59;96601.34;;;4.11;75.34
44751;BME280;30477;48.224;11.470;2023-02-02T11:26:26;96623.13;;;4.04;75.59
44751;BME280;30477;48.224;11.470;2023-02-02T11:29:03;96619.34;;;3.95;75.78
44751;BME280;30477;48.224;11.470;2023-02-02T11:34:08;96605.47;;;3.99;76.11
44751;BME280;30477;48.224;11.470;2023-02-02T11:36:34;96613.13;;;3.99;76.14
44751;BME280;30477;48.224;11.470;2023-02-02T11:39:20;96601.41;;;3.95;76.33
44751;BME280;30477;48.224;11.470;2023-02-02T11:41:45;96610.00;;;3.94;76.37
44751;BME280;30477;48.224;11.470;2023-02-02T11:44:26;96602.50;;;3.91;76.36
44751;BME280;30477;48.224;11.470;2023-02-02T11:46:52;96603.50;;;3.89;76.38
44751;BME280;30477;48.224;11.470;2023-02-02T11:49:19;96622.16;;;3.91;76.52
44751;BME280;30477;48.224;11.470;2023-02-02T11:51:59;96611.81;;;3.92;76.51
44751;BME280;30477;48.224;11.470;2023-02-02T11:54:30;96612.00;;;3.89;76.56
44751;BME280;30477;48.224;11.470;2023-02-02T11:57:04;96608.50;;;3.90;76.76
44751;BME280;30477;48.224;11.470;2023-02-02T11:59:38;96613.97;;;3.84;76.69
44751;BME280;30477;48.224;11.470;2023-02-02T12:04:45;96620.84;;;3.83;76.97
44751;BME280;30477;48.224;11.470;2023-02-02T12:07:26;96618.59;;;3.77;77.15
44751;BME280;30477;48.224;11.470;2023-02-02T12:09:52;96616.88;;;3.78;77.37
44751;BME280;30477;48.224;11.470;2023-02-02T12:12:42;96610.03;;;3.78;77.54
44751;BME280;30477;48.224;11.470;2023-02-02T12:17:42;96605.72;;;3.79;78.05
44751;BME280;30477;48.224;11.470;2023-02-02T12:31:18;96616.31;;;3.73;78.34
44751;BME280;30477;48.224;11.470;2023-02-02T12:51:02;96603.44;;;3.58;79.02
44751;BME280;30477;48.224;11.470;2023-02-02T13:10:21;96617.56;;;3.50;79.64
44751;BME280;30477;48.224;11.470;2023-02-02T13:15:44;96639.19;;;3.44;79.98
44751;BME280;30477;48.224;11.470;2023-02-02T13:18:16;96645.03;;;3.46;80.05
44751;BME280;30477;48.224;11.470;2023-02-02T13:20:46;96650.25;;;3.44;80.33
44751;BME280;30477;48.224;11.470;2023-02-02T13:23:19;96643.41;;;3.45;80.29
44751;BME280;30477;48.224;11.470;2023-02-02T13:26:06;96654.38;;;3.47;80.78
44751;BME280;30477;48.224;11.470;2023-02-02T13:28:41;96653.31;;;3.51;80.61
44751;BME280;30477;48.224;11.470;2023-02-02T13:31:14;96646.53;;;3.50;80.87
44751;BME280;30477;48.224;11.470;2023-02-02T13:33:42;96645.63;;;3.51;80.93
44751;BME280;30477;48.224;11.470;2023-02-02T13:36:17;96659.31;;;3.50;80.99
44751;BME280;30477;48.224;11.470;2023-02-02T13:38:53;96668.75;;;3.50;80.92
44751;BME280;30477;48.224;11.470;2023-02-02T13:41:19;96667.94;;;3.49;81.11
44751;BME280;30477;48.224;11.470;2023-02-02T13:44:08;96682.59;;;3.45;81.03
44751;BME280;30477;48.224;11.470;2023-02-02T13:46:51;96676.66;;;3.45;81.19
44751;BME280;30477;48.224;11.470;2023-02-02T13:49:35;96674.13;;;3.45;81.27
44751;BME280;30477;48.224;11.470;2023-02-02T14:00:24;96670.47;;;3.49;81.36
44751;BME280;30477;48.224;11.470;2023-02-02T14:02:58;96677.56;;;3.44;81.36
44751;BME280;30477;48.224;11.470;2023-02-02T14:05:28;96678.47;;;3.43;81.49
44751;BME280;30477;48.224;11.470;2023-02-02T14:08:01;96676.00;;;3.41;81.55
44751;BME280;30477;48.224;11.470;2023-02-02T14:10:43;96688.41;;;3.49;81.63
44751;BME280;30477;48.224;11.470;2023-02-02T14:13:25;96685.09;;;3.47;81.56
44751;BME280;30477;48.224;11.470;2023-02-02T14:16:21;96671.56;;;3.45;81.65
44751;BME280;30477;48.224;11.470;2023-02-02T14:24:01;96683.44;;;3.46;81.66
44751;BME280;30477;48.224;11.470;2023-02-02T14:32:02;96698.63;;;3.49;81.72
44751;BME280;30477;48.224;11.470;2023-02-02T14:34:32;96702.09;;;3.48;81.68
44751;BME280;30477;48.224;11.470;2023-02-02T14:39:54;96718.28;;;3.49;81.79
44751;BME280;30477;48.224;11.470;2023-02-02T14:48:13;96715.38;;;3.55;81.74
44751;BME280;30477;48.224;11.470;2023-02-02T14:50:42;96709.50;;;3.53;81.72
44751;BME280;30477;48.224;11.470;2023-02-02T14:58:52;96719.28;;;3.62;81.54
44751;BME280;30477;48.224;11.470;2023-02-02T15:06:47;96715.47;;;3.53;81.76
44751;BME280;30477;48.224;11.470;2023-02-02T15:19:39;96714.00;;;3.49;81.89
44751;BME280;30477;48.224;11.470;2023-02-02T15:22:32;96723.47;;;3.47;81.78
44751;BME280;30477;48.224;11.470;2023-02-02T15:25:04;96721.91;;;3.44;81.90
44751;BME280;30477;48.224;11.470;2023-02-02T15:27:32;96713.31;;;3.45;81.95
44751;BME280;30477;48.224;11.470;2023-02-02T15:30:02;96743.03;;;3.48;82.01
44751;BME280;30477;48.224;11.470;2023-02-02T15:32:29;96731.81;;;3.51;82.05
44751;BME280;30477;48.224;11.470;2023-02-02T15:34:58;96736.84;;;3.52;81.90
44751;BME280;30477;48.224;11.470;2023-02-02T15:37:29;96736.09;;;3.50;81.75
44751;BME280;30477;48.224;11.470;2023-02-02T15:40:00;96741.22;;;3.50;81.76